createdAt,value
2023-07-09T00:01:52.403Z,19.99
2023-07-09T00:04:21.384Z,19.94
2023-07-09T00:06:50.462Z,19.93
2023-07-09T00:09:22.820Z,19.89
2023-07-09T00:11:52.378Z,19.79
2023-07-09T00:14:21.284Z,19.91
2023-07-09T00:16:51.601Z,19.93
2023-07-09T00:19:25.333Z,19.95
2023-07-09T00:21:55.544Z,19.99
2023-07-09T00:24:24.334Z,19.99
2023-07-09T00:26:53.246Z,19.93
2023-07-09T00:29:22.030Z,19.93
2023-07-09T00:31:51.999Z,19.88
2023-07-09T00:34:23.149Z,19.87
2023-07-09T00:36:52.026Z,19.84
2023-07-09T00:39:21.649Z,19.80
2023-07-09T00:41:51.204Z,19.76
2023-07-09T00:44:32.700Z,19.76
2023-07-09T00:47:31.403Z,19.76
2023-07-09T00:50:10.435Z,19.82
2023-07-09T00:52:46.747Z,19.82
2023-07-09T00:55:18.865Z,19.81
2023-07-09T00:57:57.270Z,19.84
2023-07-09T01:00:31.044Z,19.82
2023-07-09T01:03:02.262Z,19.73
2023-07-09T01:05:31.265Z,19.76
2023-07-09T01:07:59.838Z,19.77
2023-07-09T01:10:28.221Z,19.85
2023-07-09T01:12:56.613Z,19.78
2023-07-09T01:15:26.409Z,19.68
2023-07-09T01:17:55.352Z,19.64
2023-07-09T01:20:25.640Z,19.68
2023-07-09T01:22:58.372Z,19.73
2023-07-09T01:25:29.089Z,19.77
2023-07-09T01:27:57.800Z,19.68
2023-07-09T01:30:30.937Z,19.67
2023-07-09T01:33:02.348Z,19.63
2023-07-09T01:35:32.944Z,19.63
2023-07-09T01:38:03.502Z,19.59
2023-07-09T01:40:33.585Z,19.54
2023-07-09T01:43:07.302Z,19.51
2023-07-09T01:45:36.016Z,19.44
2023-07-09T01:48:04.924Z,19.62
2023-07-09T01:50:33.371Z,19.75
2023-07-09T01:53:03.852Z,19.79
2023-07-09T01:55:32.367Z,19.86
2023-07-09T01:58:00.909Z,19.90
2023-07-09T02:00:29.410Z,19.91
2023-07-09T02:02:59.361Z,19.89
2023-07-09T02:05:28.166Z,19.90
2023-07-09T02:07:56.348Z,19.92
2023-07-09T02:10:26.281Z,19.92
2023-07-09T02:12:54.624Z,19.88
2023-07-09T02:15:23.165Z,19.90
2023-07-09T02:17:53.693Z,19.82
2023-07-09T02:20:21.989Z,19.74
2023-07-09T02:22:52.781Z,19.72
2023-07-09T02:25:20.991Z,19.75
2023-07-09T02:27:50.767Z,19.76
2023-07-09T02:30:20.059Z,19.78
2023-07-09T02:32:48.437Z,19.76
2023-07-09T02:35:18.847Z,19.74
2023-07-09T02:37:47.099Z,19.69
2023-07-09T02:40:16.206Z,19.76
2023-07-09T02:42:44.562Z,19.72
2023-07-09T02:45:14.415Z,19.69
2023-07-09T02:47:42.843Z,19.58
2023-07-09T02:50:12.763Z,19.57
2023-07-09T02:52:43.498Z,19.53
2023-07-09T02:55:12.074Z,19.60
2023-07-09T02:57:40.405Z,19.59
2023-07-09T03:00:10.169Z,19.62
2023-07-09T03:02:40.190Z,19.63
2023-07-09T03:05:10.833Z,19.66
2023-07-09T03:07:39.090Z,19.65
2023-07-09T03:10:08.260Z,19.65
2023-07-09T03:12:36.544Z,19.59
2023-07-09T03:15:04.839Z,19.60
2023-07-09T03:17:33.112Z,19.57
2023-07-09T03:20:02.834Z,19.60
2023-07-09T03:22:31.150Z,19.63
2023-07-09T03:24:59.497Z,19.61
2023-07-09T03:27:27.897Z,19.60
2023-07-09T03:29:56.058Z,19.52
2023-07-09T03:32:24.534Z,19.54
2023-07-09T03:34:54.298Z,19.49
2023-07-09T03:37:23.960Z,19.41
2023-07-09T03:39:52.196Z,19.26
2023-07-09T03:42:20.392Z,19.19
2023-07-09T03:44:48.653Z,19.17
2023-07-09T03:47:17.323Z,19.13
2023-07-09T03:49:45.615Z,19.09
2023-07-09T03:52:14.041Z,19.10
2023-07-09T03:54:43.762Z,19.10
2023-07-09T03:57:11.974Z,19.11
2023-07-09T03:59:41.028Z,19.07
2023-07-09T04:02:09.383Z,19.02
2023-07-09T04:04:37.598Z,18.97
2023-07-09T04:07:06.231Z,18.93
2023-07-09T04:09:34.612Z,18.86
2023-07-09T04:12:04.432Z,18.85
2023-07-09T04:14:32.664Z,18.83
2023-07-09T04:17:00.851Z,18.82
2023-07-09T04:19:29.583Z,18.81
2023-07-09T04:21:57.843Z,18.79
2023-07-09T04:24:26.077Z,18.79
2023-07-09T04:26:57.546Z,18.77
2023-07-09T04:29:27.344Z,18.75
2023-07-09T04:31:55.853Z,18.72
2023-07-09T04:34:24.774Z,18.66
2023-07-09T04:36:52.929Z,18.61
2023-07-09T04:39:21.933Z,18.57
2023-07-09T04:41:50.716Z,18.55
2023-07-09T04:44:19.303Z,18.54
2023-07-09T04:46:50.506Z,18.50
2023-07-09T04:49:18.801Z,18.46
2023-07-09T04:51:46.978Z,18.44
2023-07-09T04:54:16.257Z,18.43
2023-07-09T04:56:45.447Z,18.44
2023-07-09T04:59:14.006Z,18.40
2023-07-09T05:01:42.452Z,18.38
2023-07-09T05:04:12.653Z,18.41
2023-07-09T05:06:41.557Z,18.41
2023-07-09T05:09:10.466Z,18.43
2023-07-09T05:11:38.831Z,18.47
2023-07-09T05:14:07.141Z,18.54
2023-07-09T05:16:35.412Z,18.58
2023-07-09T05:19:03.766Z,18.63
2023-07-09T05:21:33.584Z,18.64
2023-07-09T05:24:01.810Z,18.61
2023-07-09T05:26:30.007Z,18.64
2023-07-09T05:28:59.096Z,18.74
2023-07-09T05:31:27.617Z,18.86
2023-07-09T05:33:55.914Z,18.95
2023-07-09T05:36:24.104Z,19.07
2023-07-09T05:38:53.811Z,19.22
2023-07-09T05:41:22.150Z,19.38
2023-07-09T05:43:52.146Z,19.53
2023-07-09T05:46:21.648Z,19.65
2023-07-09T05:48:51.205Z,19.72
2023-07-09T05:51:19.484Z,19.73
2023-07-09T05:53:47.667Z,19.75
2023-07-09T05:56:17.558Z,19.87
2023-07-09T05:58:45.722Z,19.97
2023-07-09T06:01:13.991Z,20.12
2023-07-09T06:03:42.353Z,20.20
2023-07-09T06:06:10.607Z,20.15
2023-07-09T06:08:40.471Z,20.01
2023-07-09T06:11:08.938Z,20.05
2023-07-09T06:13:38.686Z,20.14
2023-07-09T06:16:07.785Z,20.20
2023-07-09T06:18:36.210Z,20.42
2023-07-09T06:21:05.354Z,21.14
2023-07-09T06:23:33.770Z,22.05
2023-07-09T06:26:02.629Z,22.56
2023-07-09T06:28:31.164Z,22.78
2023-07-09T06:31:01.056Z,23.14
2023-07-09T06:33:30.430Z,23.80
2023-07-09T06:36:00.652Z,24.10
2023-07-09T06:38:30.182Z,23.96
2023-07-09T06:40:59.063Z,24.24
2023-07-09T06:43:27.459Z,24.69
2023-07-09T06:45:58.329Z,25.95
2023-07-09T06:48:29.721Z,26.57
2023-07-09T06:50:59.456Z,26.72
2023-07-09T06:53:28.858Z,27.29
2023-07-09T06:56:00.067Z,27.45
2023-07-09T06:58:29.914Z,27.74
2023-07-09T07:00:58.660Z,28.18
2023-07-09T07:03:28.466Z,28.73
2023-07-09T07:05:57.138Z,29.12
2023-07-09T07:08:27.652Z,29.26
2023-07-09T07:11:02.993Z,29.60
2023-07-09T07:13:31.631Z,29.42
2023-07-09T07:15:59.959Z,29.00
2023-07-09T07:18:30.435Z,28.62
2023-07-09T07:20:59.181Z,27.96
2023-07-09T07:23:27.475Z,27.07
2023-07-09T07:25:55.980Z,26.27
2023-07-09T07:28:24.934Z,26.63
2023-07-09T07:31:01.149Z,27.93
2023-07-09T07:33:30.944Z,28.18
2023-07-09T07:38:31.355Z,29.09
2023-07-09T07:40:59.629Z,29.63
2023-07-09T07:43:27.835Z,30.07
2023-07-09T07:45:56.477Z,29.63
2023-07-09T07:48:24.840Z,29.63
2023-07-09T07:51:01.147Z,29.82
2023-07-09T07:53:30.626Z,29.60
2023-07-09T07:55:59.039Z,29.50
2023-07-09T07:58:27.361Z,29.52
2023-07-09T08:00:58.610Z,29.67
2023-07-09T08:03:27.419Z,29.00
2023-07-09T08:05:58.095Z,29.32
2023-07-09T08:08:28.194Z,29.43
2023-07-09T08:11:06.202Z,29.29
2023-07-09T08:13:35.481Z,29.07
2023-07-09T08:16:04.405Z,29.45
2023-07-09T08:18:33.463Z,30.00
2023-07-09T08:21:03.877Z,30.26
2023-07-09T08:23:32.359Z,30.80
2023-07-09T08:26:04.831Z,31.34
2023-07-09T08:28:34.212Z,31.45
2023-07-09T08:31:02.839Z,31.27
2023-07-09T08:33:31.771Z,31.36
2023-07-09T08:36:00.353Z,31.31
2023-07-09T08:38:30.333Z,31.48
2023-07-09T08:41:01.778Z,31.09
2023-07-09T08:43:46.290Z,31.04
2023-07-09T08:46:22.636Z,30.93
2023-07-09T08:48:54.592Z,30.54
2023-07-09T08:51:30.792Z,31.05
2023-07-09T08:54:02.659Z,31.60
2023-07-09T08:56:34.476Z,31.06
2023-07-09T08:59:05.105Z,30.83
2023-07-09T09:01:41.463Z,31.03
2023-07-09T09:04:21.820Z,31.24
2023-07-09T09:06:59.554Z,31.19
2023-07-09T09:09:36.060Z,31.02
2023-07-09T09:12:15.063Z,30.87
2023-07-09T09:14:46.295Z,31.13
2023-07-09T09:17:16.879Z,31.32
2023-07-09T09:19:50.658Z,31.50
2023-07-09T09:22:25.779Z,31.58
2023-07-09T09:25:03.887Z,30.95
2023-07-09T09:27:32.210Z,30.71
2023-07-09T09:30:01.153Z,30.50
2023-07-09T09:32:32.942Z,30.56
2023-07-09T09:35:01.292Z,30.38
2023-07-09T09:37:32.218Z,30.29
2023-07-09T09:40:16.928Z,29.95
2023-07-09T09:42:46.667Z,29.58
2023-07-09T09:45:19.312Z,29.17
2023-07-09T09:47:48.483Z,29.06
2023-07-09T09:50:17.865Z,28.69
2023-07-09T09:52:48.035Z,28.55
2023-07-09T09:55:21.971Z,28.48
2023-07-09T09:57:51.651Z,28.39
2023-07-09T10:00:21.713Z,28.10
2023-07-09T10:02:50.458Z,27.71
2023-07-09T10:05:23.604Z,27.55
2023-07-09T10:08:02.570Z,27.62
2023-07-09T10:10:36.030Z,27.69
2023-07-09T10:13:13.766Z,27.64
2023-07-09T10:15:47.528Z,27.50
2023-07-09T10:18:31.270Z,27.33
2023-07-09T10:21:08.148Z,27.56
2023-07-09T10:23:46.898Z,27.29
2023-07-09T10:26:24.172Z,27.10
2023-07-09T10:29:24.626Z,26.83
2023-07-09T10:31:58.779Z,26.55
2023-07-09T10:34:34.476Z,26.62
2023-07-09T10:37:23.409Z,26.80
2023-07-09T10:39:54.510Z,26.70
2023-07-09T10:42:29.018Z,26.65
2023-07-09T10:45:02.358Z,26.72
2023-07-09T10:47:35.020Z,26.99
2023-07-09T10:50:07.436Z,26.91
2023-07-09T10:52:39.977Z,26.87
2023-07-09T10:55:18.067Z,27.04
2023-07-09T10:57:54.562Z,27.31
2023-07-09T11:00:26.149Z,27.47
2023-07-09T11:03:02.431Z,27.41
2023-07-09T11:05:31.599Z,27.20
2023-07-09T11:08:05.618Z,27.12
2023-07-09T11:10:36.859Z,27.12
2023-07-09T11:13:12.814Z,27.05
2023-07-09T11:15:49.350Z,26.81
2023-07-09T11:18:24.575Z,26.67
2023-07-09T11:21:01.245Z,26.37
2023-07-09T11:23:45.987Z,26.31
2023-07-09T11:26:17.018Z,26.42
2023-07-09T11:28:54.021Z,26.63
2023-07-09T11:31:25.933Z,26.50
2023-07-09T11:34:09.802Z,26.41
2023-07-09T11:36:50.007Z,26.04
2023-07-09T11:39:21.975Z,26.13
2023-07-09T11:41:50.676Z,26.06
2023-07-09T11:44:22.878Z,26.14
2023-07-09T11:47:12.985Z,26.27
2023-07-09T11:49:49.851Z,26.32
2023-07-09T11:52:24.590Z,26.32
2023-07-09T11:54:52.915Z,26.37
2023-07-09T11:57:21.395Z,26.25
2023-07-09T11:59:51.121Z,26.44
2023-07-09T12:02:21.892Z,26.50
2023-07-09T12:04:52.602Z,26.62
2023-07-09T12:07:27.003Z,26.58
2023-07-09T12:09:56.171Z,26.62
2023-07-09T12:12:27.554Z,26.57
2023-07-09T12:14:57.640Z,26.54
2023-07-09T12:17:30.353Z,26.73
2023-07-09T12:19:58.688Z,26.69
2023-07-09T12:22:28.404Z,26.46
2023-07-09T12:24:57.810Z,26.36
2023-07-09T12:27:27.931Z,26.47
2023-07-09T12:29:59.615Z,26.29
2023-07-09T12:32:29.716Z,26.29
2023-07-09T12:34:59.416Z,26.06
2023-07-09T12:37:33.342Z,25.98
2023-07-09T12:40:03.880Z,25.89
2023-07-09T12:42:35.254Z,25.62
2023-07-09T12:45:05.604Z,25.74
2023-07-09T12:47:34.123Z,25.89
2023-07-09T12:50:05.228Z,25.82
2023-07-09T12:52:33.535Z,25.91
2023-07-09T12:55:04.315Z,26.37
2023-07-09T12:57:33.096Z,26.64
2023-07-09T13:00:01.420Z,26.89
2023-07-09T13:02:31.652Z,26.75
2023-07-09T13:05:04.808Z,26.65
2023-07-09T13:07:36.754Z,26.86
2023-07-09T13:10:17.991Z,27.20
2023-07-09T13:12:49.678Z,27.30
2023-07-09T13:15:32.346Z,27.24
2023-07-09T13:18:04.283Z,27.04
2023-07-09T13:20:34.950Z,26.69
2023-07-09T13:23:03.432Z,26.22
2023-07-09T13:25:44.821Z,26.02
2023-07-09T13:28:20.699Z,25.85
2023-07-09T13:30:49.416Z,25.99
2023-07-09T13:33:19.255Z,25.88
2023-07-09T13:35:47.995Z,25.82
2023-07-09T13:38:17.311Z,25.77
2023-07-09T13:40:47.686Z,25.95
2023-07-09T13:43:18.486Z,26.02
2023-07-09T13:45:46.694Z,25.95
2023-07-09T13:48:19.558Z,26.20
2023-07-09T13:50:49.732Z,26.34
2023-07-09T13:53:20.391Z,26.52
2023-07-09T13:55:50.558Z,26.53
2023-07-09T13:58:21.331Z,26.70
2023-07-09T14:00:52.010Z,26.72
2023-07-09T14:03:25.061Z,26.65
2023-07-09T14:05:54.136Z,26.52
2023-07-09T14:08:23.204Z,26.50
2023-07-09T14:10:52.052Z,26.55
2023-07-09T14:13:23.627Z,26.63
2023-07-09T14:15:52.024Z,26.38
2023-07-09T14:18:23.668Z,26.18
2023-07-09T14:20:52.761Z,26.04
2023-07-09T14:23:21.288Z,26.00
2023-07-09T14:25:49.807Z,25.99
2023-07-09T14:28:20.772Z,26.01
2023-07-09T14:30:52.231Z,25.88
2023-07-09T14:33:23.552Z,25.81
2023-07-09T14:35:52.428Z,25.80
2023-07-09T14:38:24.066Z,25.82
2023-07-09T14:40:55.128Z,25.90
2023-07-09T14:43:24.030Z,25.98
2023-07-09T14:45:53.054Z,25.98
2023-07-09T14:48:23.375Z,25.88
2023-07-09T14:50:51.717Z,26.02
2023-07-09T14:53:27.554Z,26.19
2023-07-09T14:55:56.687Z,26.14
2023-07-09T14:58:26.301Z,25.95
2023-07-09T15:00:56.499Z,25.93
2023-07-09T15:03:27.971Z,26.05
2023-07-09T15:05:56.639Z,26.00
2023-07-09T15:08:26.758Z,26.04
2023-07-09T15:10:56.901Z,25.91
2023-07-09T15:13:32.718Z,25.64
2023-07-09T15:16:01.604Z,25.62
2023-07-09T15:18:34.652Z,25.67
2023-07-09T15:21:06.051Z,25.65
2023-07-09T15:23:38.987Z,25.53
2023-07-09T15:26:14.594Z,25.47
2023-07-09T15:28:43.119Z,25.36
2023-07-09T15:31:13.132Z,25.19
2023-07-09T15:33:42.964Z,25.15
2023-07-09T15:36:13.901Z,25.10
2023-07-09T15:38:43.324Z,25.02
2023-07-09T15:41:14.420Z,24.93
2023-07-09T15:43:44.477Z,24.67
2023-07-09T15:46:19.514Z,24.61
2023-07-09T15:48:50.375Z,24.57
2023-07-09T15:51:18.802Z,24.35
2023-07-09T15:53:47.227Z,24.33
2023-07-09T15:56:24.951Z,24.15
2023-07-09T15:58:53.562Z,24.08
2023-07-09T16:01:23.691Z,24.01
2023-07-09T16:04:01.406Z,23.91
2023-07-09T16:06:29.890Z,23.99
2023-07-09T16:08:58.380Z,23.94
2023-07-09T16:11:26.741Z,23.96
2023-07-09T16:13:56.164Z,23.96
2023-07-09T16:16:27.633Z,23.83
2023-07-09T16:18:57.360Z,23.79
2023-07-09T16:21:28.584Z,23.79
2023-07-09T16:23:59.768Z,23.72
2023-07-09T16:26:28.299Z,23.75
2023-07-09T16:28:56.758Z,23.86
2023-07-09T16:31:26.367Z,23.99
2023-07-09T16:33:57.341Z,24.05
2023-07-09T16:36:25.787Z,24.01
2023-07-09T16:38:55.868Z,23.91
2023-07-09T16:41:24.102Z,23.83
2023-07-09T16:43:52.326Z,23.71
2023-07-09T16:46:25.430Z,23.73
2023-07-09T16:48:55.977Z,23.83
2023-07-09T16:51:26.796Z,23.78
2023-07-09T16:53:55.117Z,23.73
2023-07-09T16:56:24.462Z,23.70
2023-07-09T16:58:53.066Z,23.56
2023-07-09T17:01:21.535Z,23.52
2023-07-09T17:03:49.929Z,23.48
2023-07-09T17:06:18.172Z,23.48
2023-07-09T17:08:48.042Z,23.60
2023-07-09T17:11:17.576Z,23.58
2023-07-09T17:13:47.342Z,23.62
2023-07-09T17:16:15.607Z,23.59
2023-07-09T17:18:43.802Z,23.50
2023-07-09T17:21:12.117Z,23.54
2023-07-09T17:23:40.535Z,23.44
2023-07-09T17:26:10.511Z,23.37
2023-07-09T17:28:38.842Z,23.25
2023-07-09T17:31:07.284Z,23.27
2023-07-09T17:33:35.786Z,23.27
2023-07-09T17:36:04.065Z,23.32
2023-07-09T17:38:36.131Z,23.24
2023-07-09T17:41:04.842Z,23.13
2023-07-09T17:43:35.015Z,22.97
2023-07-09T17:46:04.788Z,22.79
2023-07-09T17:48:37.402Z,22.87
2023-07-09T17:51:06.327Z,22.84
2023-07-09T17:53:37.326Z,22.77
2023-07-09T17:56:11.901Z,22.72
2023-07-09T17:58:42.625Z,22.74
2023-07-09T18:01:10.966Z,22.59
2023-07-09T18:03:39.363Z,22.56
2023-07-09T18:06:08.013Z,22.60
2023-07-09T18:08:36.613Z,22.67
2023-07-09T18:11:04.835Z,22.70
2023-07-09T18:13:33.361Z,22.72
2023-07-09T18:16:04.398Z,22.72
2023-07-09T18:18:33.000Z,22.67
2023-07-09T18:21:01.402Z,22.46
2023-07-09T18:23:29.572Z,22.50
2023-07-09T18:25:57.744Z,22.43
2023-07-09T18:28:32.375Z,22.45
2023-07-09T18:31:15.850Z,22.49
2023-07-09T18:33:47.329Z,22.49
2023-07-09T18:36:15.612Z,22.43
2023-07-09T18:38:43.819Z,22.39
2023-07-09T18:41:16.561Z,22.36
2023-07-09T18:43:46.306Z,22.34
2023-07-09T18:46:15.419Z,22.19
2023-07-09T18:48:43.973Z,22.11
2023-07-09T18:51:14.907Z,22.11
2023-07-09T18:53:44.365Z,22.09
2023-07-09T18:56:12.874Z,22.00
2023-07-09T18:58:41.088Z,21.97
2023-07-09T19:01:20.261Z,21.95
2023-07-09T19:03:48.742Z,21.86
2023-07-09T19:06:18.416Z,21.85
2023-07-09T19:08:46.625Z,21.86
2023-07-09T19:11:14.809Z,21.76
2023-07-09T19:13:42.973Z,21.73
2023-07-09T19:16:23.867Z,21.74
2023-07-09T19:18:51.989Z,21.62
2023-07-09T19:21:21.646Z,21.50
2023-07-09T19:23:49.853Z,21.47
2023-07-09T19:26:18.102Z,21.42
2023-07-09T19:28:46.795Z,21.42
2023-07-09T19:31:15.605Z,21.36
2023-07-09T19:33:43.987Z,21.37
2023-07-09T19:36:25.916Z,21.37
2023-07-09T19:38:56.047Z,21.37
2023-07-09T19:41:25.859Z,21.21
2023-07-09T19:43:54.442Z,21.13
2023-07-09T19:46:24.649Z,21.14
2023-07-09T19:48:52.938Z,21.09
2023-07-09T19:51:21.207Z,21.10
2023-07-09T19:53:51.029Z,21.03
2023-07-09T19:56:19.538Z,20.98
2023-07-09T19:58:48.273Z,20.88
2023-07-09T20:01:16.641Z,20.90
2023-07-09T20:03:45.145Z,20.85
2023-07-09T20:06:17.045Z,20.80
2023-07-09T20:08:45.520Z,20.69
2023-07-09T20:11:15.468Z,20.64
2023-07-09T20:13:44.879Z,20.57
2023-07-09T20:16:24.541Z,20.52
2023-07-09T20:18:54.500Z,20.43
2023-07-09T20:21:26.201Z,20.40
2023-07-09T20:23:55.117Z,20.37
2023-07-09T20:26:24.793Z,20.39
2023-07-09T20:28:52.949Z,20.28
2023-07-09T20:31:23.998Z,20.23
2023-07-09T20:34:01.797Z,20.17
2023-07-09T20:36:30.604Z,20.09
2023-07-09T20:38:58.765Z,20.13
2023-07-09T20:41:31.405Z,20.13
2023-07-09T20:43:59.820Z,20.09
2023-07-09T20:46:27.955Z,20.06
2023-07-09T20:48:56.514Z,19.99
2023-07-09T20:51:24.768Z,19.92
2023-07-09T20:53:53.263Z,19.88
2023-07-09T20:56:21.860Z,19.87
2023-07-09T20:58:52.424Z,19.82
2023-07-09T21:01:20.670Z,19.80
2023-07-09T21:03:49.127Z,19.76
2023-07-09T21:06:19.236Z,19.77
2023-07-09T21:08:47.713Z,19.70
2023-07-09T21:11:15.915Z,19.62
2023-07-09T21:13:44.460Z,19.59
2023-07-09T21:16:21.820Z,19.58
2023-07-09T21:18:50.331Z,19.53
2023-07-09T21:21:19.727Z,19.51
2023-07-09T21:23:47.942Z,19.47
2023-07-09T21:26:18.191Z,19.42
2023-07-09T21:28:47.629Z,19.33
2023-07-09T21:31:21.916Z,19.35
2023-07-09T21:33:50.726Z,19.31
2023-07-09T21:36:18.878Z,19.27
2023-07-09T21:38:47.065Z,19.21
2023-07-09T21:41:15.478Z,19.21
2023-07-09T21:43:43.724Z,19.18
2023-07-09T21:46:28.033Z,19.15
2023-07-09T21:48:56.771Z,19.17
2023-07-09T21:51:24.906Z,19.18
2023-07-09T21:56:24.269Z,19.12
2023-07-09T21:58:52.908Z,19.08
2023-07-09T22:01:21.687Z,19.06
2023-07-09T22:03:51.364Z,19.05
2023-07-09T22:06:19.647Z,19.03
2023-07-09T22:08:48.344Z,18.98
2023-07-09T22:11:23.606Z,18.97
2023-07-09T22:13:55.242Z,18.95
2023-07-09T22:16:23.748Z,18.91
2023-07-09T22:18:53.370Z,18.89
2023-07-09T22:21:21.685Z,18.85
2023-07-09T22:23:49.958Z,18.82
2023-07-09T22:26:20.186Z,18.80
2023-07-09T22:28:48.987Z,18.78
2023-07-09T22:31:17.250Z,18.78
2023-07-09T22:33:45.512Z,18.78
2023-07-09T22:36:15.504Z,18.77
2023-07-09T22:38:43.724Z,18.76
2023-07-09T22:41:12.168Z,18.73
2023-07-09T22:43:40.827Z,18.73
2023-07-09T22:46:16.237Z,18.74
2023-07-09T22:48:45.158Z,18.74
2023-07-09T22:51:15.326Z,18.72
2023-07-09T22:53:43.833Z,18.71
2023-07-09T22:56:12.389Z,18.65
2023-07-09T22:58:40.598Z,18.64
2023-07-09T23:01:15.911Z,18.65
2023-07-09T23:03:46.257Z,18.67
2023-07-09T23:06:23.830Z,18.63
2023-07-09T23:08:53.323Z,18.61
2023-07-09T23:11:25.034Z,18.62
2023-07-09T23:13:53.922Z,18.59
2023-07-09T23:16:26.375Z,18.62
2023-07-09T23:18:55.678Z,18.62
2023-07-09T23:21:26.048Z,18.64
2023-07-09T23:24:00.532Z,18.60
2023-07-09T23:26:29.544Z,18.63
2023-07-09T23:28:58.033Z,18.61
2023-07-09T23:31:28.460Z,18.60
2023-07-09T23:33:57.658Z,18.58
2023-07-09T23:36:28.484Z,18.57
2023-07-09T23:38:56.682Z,18.52
2023-07-09T23:41:28.729Z,18.50
2023-07-09T23:43:59.415Z,18.50
2023-07-09T23:46:32.020Z,18.48
2023-07-09T23:49:10.238Z,18.50
2023-07-09T23:51:40.764Z,18.48
2023-07-09T23:54:11.365Z,18.48
2023-07-09T23:56:40.051Z,18.49
2023-07-09T23:59:09.235Z,18.52
